createdAt,value
2023-04-21T00:01:42.377Z,73.90
2023-04-21T00:04:13.654Z,73.80
2023-04-21T00:06:44.426Z,73.90
2023-04-21T00:09:12.592Z,74.00
2023-04-21T00:11:40.650Z,73.80
2023-04-21T00:14:08.819Z,73.50
2023-04-21T00:16:37.330Z,73.30
2023-04-21T00:19:07.132Z,73.20
2023-04-21T00:21:35.597Z,72.90
2023-04-21T00:24:05.539Z,72.80
2023-04-21T00:26:33.621Z,73.00
2023-04-21T00:29:01.648Z,72.90
2023-04-21T00:31:29.865Z,72.80
2023-04-21T00:33:57.962Z,73.10
2023-04-21T00:36:28.203Z,73.00
2023-04-21T00:38:56.277Z,73.10
2023-04-21T00:41:25.936Z,73.30
2023-04-21T00:44:04.547Z,73.70
2023-04-21T00:46:33.173Z,73.90
2023-04-21T00:49:03.002Z,73.40
2023-04-21T00:51:33.110Z,73.40
2023-04-21T00:54:02.871Z,73.20
2023-04-21T00:56:33.788Z,73.60
2023-04-21T00:59:02.695Z,73.90
2023-04-21T01:01:31.547Z,73.70
2023-04-21T01:04:00.870Z,74.00
2023-04-21T01:06:30.203Z,73.90
2023-04-21T01:08:58.332Z,73.80
2023-04-21T01:11:26.468Z,74.00
2023-04-21T01:13:56.602Z,74.00
2023-04-21T01:16:25.315Z,74.00
2023-04-21T01:18:54.373Z,73.90
2023-04-21T01:21:23.719Z,73.70
2023-04-21T01:23:53.158Z,73.70
2023-04-21T01:26:22.701Z,73.60
2023-04-21T01:28:51.180Z,73.60
2023-04-21T01:31:21.091Z,73.50
2023-04-21T01:33:49.205Z,73.60
2023-04-21T01:36:17.305Z,73.60
2023-04-21T01:38:45.509Z,73.50
2023-04-21T01:41:15.034Z,73.60
2023-04-21T01:43:43.177Z,74.10
2023-04-21T01:46:11.344Z,74.00
2023-04-21T01:48:39.445Z,73.90
2023-04-21T01:51:07.582Z,73.70
2023-04-21T01:53:35.641Z,73.80
2023-04-21T01:56:03.798Z,73.90
2023-04-21T01:58:33.232Z,74.00
2023-04-21T02:01:01.334Z,73.90
2023-04-21T02:03:29.663Z,73.80
2023-04-21T02:05:57.821Z,73.70
2023-04-21T02:08:25.901Z,73.60
2023-04-21T02:10:53.945Z,73.60
2023-04-21T02:13:21.994Z,73.60
2023-04-21T02:15:59.622Z,73.70
2023-04-21T02:18:34.526Z,73.80
2023-04-21T02:21:03.017Z,73.70
2023-04-21T02:23:31.073Z,73.80
2023-04-21T02:25:59.135Z,73.70
2023-04-21T02:28:27.198Z,73.70
2023-04-21T02:30:56.639Z,73.70
2023-04-21T02:33:24.752Z,73.80
2023-04-21T02:35:52.916Z,73.70
2023-04-21T02:38:20.933Z,73.80
2023-04-21T02:40:50.530Z,73.90
2023-04-21T02:43:18.741Z,73.80
2023-04-21T02:45:47.133Z,73.90
2023-04-21T02:48:20.752Z,74.00
2023-04-21T02:50:48.776Z,74.20
2023-04-21T02:53:17.437Z,74.10
2023-04-21T02:55:45.666Z,74.20
2023-04-21T02:58:13.706Z,74.20
2023-04-21T03:00:41.833Z,74.30
2023-04-21T03:03:10.045Z,74.80
2023-04-21T03:05:39.602Z,74.20
2023-04-21T03:08:07.650Z,74.10
2023-04-21T03:10:38.215Z,74.20
2023-04-21T03:13:06.287Z,74.40
2023-04-21T03:15:34.376Z,74.30
2023-04-21T03:18:02.890Z,74.30
2023-04-21T03:20:30.958Z,74.20
2023-04-21T03:23:00.423Z,74.10
2023-04-21T03:25:28.750Z,74.30
2023-04-21T03:27:57.213Z,74.20
2023-04-21T03:30:26.385Z,74.30
2023-04-21T03:32:55.556Z,74.20
2023-04-21T03:35:23.785Z,74.30
2023-04-21T03:37:51.830Z,74.30
2023-04-21T03:40:21.290Z,74.30
2023-04-21T03:42:49.333Z,74.10
2023-04-21T03:45:19.583Z,74.00
2023-04-21T03:47:47.625Z,73.80
2023-04-21T03:50:15.703Z,73.80
2023-04-21T03:52:43.737Z,73.70
2023-04-21T03:55:12.078Z,73.60
2023-04-21T03:57:42.743Z,73.70
2023-04-21T04:00:12.764Z,73.70
2023-04-21T04:02:41.060Z,73.60
2023-04-21T04:05:09.686Z,73.60
2023-04-21T04:07:37.920Z,73.60
2023-04-21T04:10:06.329Z,73.50
2023-04-21T04:12:34.404Z,73.50
2023-04-21T04:15:03.834Z,73.50
2023-04-21T04:17:31.954Z,73.50
2023-04-21T04:20:00.046Z,73.40
2023-04-21T04:22:28.075Z,73.50
2023-04-21T04:24:57.326Z,73.50
2023-04-21T04:27:25.371Z,73.50
2023-04-21T04:29:53.401Z,73.50
2023-04-21T04:32:22.826Z,73.30
2023-04-21T04:34:52.404Z,73.30
2023-04-21T04:37:21.856Z,73.30
2023-04-21T04:39:50.462Z,73.50
2023-04-21T04:42:20.271Z,73.40
2023-04-21T04:44:48.471Z,73.40
2023-04-21T04:47:16.540Z,73.40
2023-04-21T04:49:45.947Z,73.20
2023-04-21T04:52:13.962Z,73.10
2023-04-21T04:54:42.017Z,73.10
2023-04-21T04:57:10.042Z,73.20
2023-04-21T04:59:38.081Z,73.20
2023-04-21T05:02:06.182Z,73.40
2023-04-21T05:04:35.629Z,73.20
2023-04-21T05:07:06.199Z,73.10
2023-04-21T05:09:34.270Z,73.00
2023-04-21T05:12:02.623Z,72.90
2023-04-21T05:14:30.872Z,72.80
2023-04-21T05:16:58.947Z,72.60
2023-04-21T05:19:27.100Z,72.50
2023-04-21T05:22:00.728Z,72.60
2023-04-21T05:24:30.210Z,72.60
2023-04-21T05:26:58.253Z,72.60
2023-04-21T05:29:26.926Z,72.40
2023-04-21T05:31:55.061Z,72.50
2023-04-21T05:34:23.110Z,72.50
2023-04-21T05:36:52.214Z,72.60
2023-04-21T05:39:20.380Z,72.60
2023-04-21T05:41:49.795Z,72.60
2023-04-21T05:44:18.743Z,72.70
2023-04-21T05:46:46.975Z,72.90
2023-04-21T05:49:15.469Z,72.80
2023-04-21T05:51:43.528Z,72.70
2023-04-21T05:54:11.593Z,72.60
2023-04-21T05:56:39.662Z,73.40
2023-04-21T05:59:09.069Z,72.70
2023-04-21T06:01:37.447Z,72.70
2023-04-21T06:04:07.063Z,72.70
2023-04-21T06:06:35.433Z,72.80
2023-04-21T06:09:03.469Z,72.90
2023-04-21T06:11:31.485Z,73.00
2023-04-21T06:13:59.860Z,73.10
2023-04-21T06:16:32.183Z,73.20
2023-04-21T06:19:00.268Z,73.20
2023-04-21T06:21:28.448Z,73.10
2023-04-21T06:23:56.467Z,73.20
2023-04-21T06:26:24.519Z,73.00
2023-04-21T06:28:52.543Z,73.10
2023-04-21T06:31:20.622Z,73.00
2023-04-21T06:33:50.105Z,73.00
2023-04-21T06:36:18.295Z,73.00
2023-04-21T06:38:46.396Z,72.80
2023-04-21T06:41:14.433Z,72.60
2023-04-21T06:43:42.518Z,72.40
2023-04-21T06:46:10.780Z,72.40
2023-04-21T06:48:38.837Z,72.30
2023-04-21T06:51:08.304Z,72.40
2023-04-21T06:53:37.448Z,72.40
2023-04-21T06:56:05.681Z,72.40
2023-04-21T06:58:33.720Z,72.40
2023-04-21T07:01:01.994Z,72.40
2023-04-21T07:03:30.218Z,72.40
2023-04-21T07:05:58.535Z,72.40
2023-04-21T07:08:27.944Z,72.40
2023-04-21T07:10:55.991Z,72.60
2023-04-21T07:13:24.148Z,72.60
2023-04-21T07:15:52.628Z,72.70
2023-04-21T07:18:20.862Z,72.70
2023-04-21T07:20:48.896Z,72.70
2023-04-21T07:23:16.937Z,72.80
2023-04-21T07:25:46.504Z,72.70
2023-04-21T07:28:16.188Z,72.40
2023-04-21T07:30:44.273Z,72.40
2023-04-21T07:33:12.378Z,72.40
2023-04-21T07:35:40.469Z,72.40
2023-04-21T07:38:08.525Z,72.20
2023-04-21T07:40:36.544Z,72.20
2023-04-21T07:43:05.971Z,72.40
2023-04-21T07:45:34.014Z,72.10
2023-04-21T07:48:02.058Z,72.10
2023-04-21T07:50:30.165Z,72.30
2023-04-21T07:52:58.214Z,72.40
2023-04-21T07:55:26.263Z,72.70
2023-04-21T07:57:54.705Z,72.80
2023-04-21T08:00:24.271Z,73.00
2023-04-21T08:02:52.409Z,72.90
2023-04-21T08:05:20.841Z,72.80
2023-04-21T08:07:48.986Z,72.70
2023-04-21T08:10:17.217Z,72.60
2023-04-21T08:12:45.420Z,72.70
2023-04-21T08:15:13.512Z,72.90
2023-04-21T08:17:42.980Z,72.50
2023-04-21T08:20:11.884Z,72.70
2023-04-21T08:22:39.959Z,72.70
2023-04-21T08:25:09.045Z,72.60
2023-04-21T08:27:40.099Z,72.30
2023-04-21T08:30:09.394Z,73.00
2023-04-21T08:32:37.631Z,72.60
2023-04-21T08:35:08.159Z,71.90
2023-04-21T08:37:37.944Z,72.10
2023-04-21T08:40:07.488Z,72.50
2023-04-21T08:42:36.976Z,72.30
2023-04-21T08:45:05.684Z,72.20
2023-04-21T08:47:34.255Z,71.20
2023-04-21T08:50:02.430Z,70.00
2023-04-21T08:52:31.840Z,69.90
2023-04-21T08:55:00.259Z,70.10
2023-04-21T08:57:28.298Z,70.00
2023-04-21T08:59:57.085Z,69.20
2023-04-21T09:02:25.371Z,69.30
2023-04-21T09:04:55.021Z,69.10
2023-04-21T09:07:42.701Z,69.10
2023-04-21T09:10:10.851Z,69.10
2023-04-21T09:12:40.960Z,69.00
2023-04-21T09:15:11.965Z,68.90
2023-04-21T09:17:40.085Z,68.90
2023-04-21T09:20:16.455Z,68.70
2023-04-21T09:22:46.121Z,68.30
2023-04-21T09:25:18.596Z,68.80
2023-04-21T09:27:47.428Z,68.60
2023-04-21T09:30:19.720Z,68.60
2023-04-21T09:32:48.037Z,68.30
2023-04-21T09:35:16.178Z,67.70
2023-04-21T09:37:46.219Z,67.50
2023-04-21T09:40:15.791Z,67.60
2023-04-21T09:42:44.874Z,67.70
2023-04-21T09:47:50.422Z,66.90
2023-04-21T09:50:26.669Z,66.90
2023-04-21T09:53:13.351Z,66.30
2023-04-21T09:55:44.171Z,65.60
2023-04-21T09:58:15.477Z,66.20
2023-04-21T10:00:44.635Z,66.00
2023-04-21T10:03:14.151Z,65.60
2023-04-21T10:05:43.386Z,66.00
2023-04-21T10:08:13.460Z,66.20
2023-04-21T10:10:42.032Z,65.90
2023-04-21T10:13:16.606Z,65.90
2023-04-21T10:15:44.716Z,66.30
2023-04-21T10:18:17.814Z,65.90
2023-04-21T10:20:56.440Z,65.80
2023-04-21T10:23:37.072Z,65.90
2023-04-21T10:26:11.999Z,65.90
2023-04-21T10:28:48.537Z,66.00
2023-04-21T10:31:31.039Z,65.50
2023-04-21T10:34:19.164Z,65.80
2023-04-21T10:37:17.471Z,65.30
2023-04-21T10:39:57.177Z,65.30
2023-04-21T10:42:27.626Z,64.70
2023-04-21T10:45:12.943Z,64.90
2023-04-21T10:47:48.892Z,64.80
2023-04-21T10:50:30.845Z,65.20
2023-04-21T10:53:08.929Z,65.30
2023-04-21T10:55:38.985Z,65.30
2023-04-21T10:58:09.145Z,65.00
2023-04-21T11:00:39.304Z,64.80
2023-04-21T11:03:09.161Z,64.80
2023-04-21T11:05:40.308Z,64.80
2023-04-21T11:08:11.368Z,65.00
2023-04-21T11:10:50.681Z,64.70
2023-04-21T11:13:21.234Z,64.00
2023-04-21T11:16:04.182Z,64.50
2023-04-21T11:18:42.469Z,64.00
2023-04-21T11:21:17.714Z,64.00
2023-04-21T11:23:53.325Z,64.30
2023-04-21T11:26:32.657Z,64.70
2023-04-21T11:29:06.043Z,64.30
2023-04-21T11:31:34.279Z,63.30
2023-04-21T11:34:02.488Z,63.50
2023-04-21T11:36:30.963Z,63.00
2023-04-21T11:38:59.455Z,62.80
2023-04-21T11:41:28.929Z,62.70
2023-04-21T11:43:56.969Z,62.70
2023-04-21T11:46:26.838Z,62.50
2023-04-21T11:49:02.845Z,62.20
2023-04-21T11:51:34.965Z,62.30
2023-04-21T11:54:04.383Z,62.50
2023-04-21T11:56:37.909Z,62.50
2023-04-21T11:59:08.884Z,62.30
2023-04-21T12:01:43.462Z,62.10
2023-04-21T12:04:16.902Z,62.60
2023-04-21T12:06:46.222Z,62.80
2023-04-21T12:09:19.635Z,62.80
2023-04-21T12:11:51.613Z,61.60
2023-04-21T12:14:21.105Z,61.50
2023-04-21T12:16:51.213Z,61.30
2023-04-21T12:19:26.631Z,62.00
2023-04-21T12:21:56.290Z,61.20
2023-04-21T12:24:24.592Z,61.20
2023-04-21T12:26:54.015Z,61.30
2023-04-21T12:29:22.056Z,61.00
2023-04-21T12:31:50.127Z,61.00
2023-04-21T12:34:18.209Z,60.50
2023-04-21T12:36:46.313Z,61.10
2023-04-21T12:39:17.320Z,61.10
2023-04-21T12:41:45.502Z,60.60
2023-04-21T12:44:15.051Z,61.30
2023-04-21T12:46:43.468Z,61.00
2023-04-21T12:49:11.770Z,60.70
2023-04-21T12:51:39.811Z,60.50
2023-04-21T12:54:08.698Z,60.20
2023-04-21T12:56:37.265Z,59.90
2023-04-21T12:59:05.337Z,60.30
2023-04-21T13:01:34.810Z,60.70
2023-04-21T13:04:03.248Z,60.20
2023-04-21T13:06:32.885Z,59.70
2023-04-21T13:09:01.784Z,59.50
2023-04-21T13:11:29.838Z,59.10
2023-04-21T13:13:58.116Z,59.00
2023-04-21T13:16:27.878Z,59.30
2023-04-21T13:18:59.513Z,59.20
2023-04-21T13:21:27.862Z,59.80
2023-04-21T13:23:56.222Z,59.60
2023-04-21T13:26:24.373Z,58.80
2023-04-21T13:28:52.532Z,58.90
2023-04-21T13:31:20.869Z,59.10
2023-04-21T13:33:49.030Z,59.40
2023-04-21T13:36:18.558Z,59.20
2023-04-21T13:38:52.264Z,59.00
2023-04-21T13:41:20.734Z,59.20
2023-04-21T13:43:48.976Z,58.90
2023-04-21T13:46:17.059Z,58.60
2023-04-21T13:48:46.799Z,58.80
2023-04-21T13:51:15.053Z,58.70
2023-04-21T13:53:44.614Z,59.10
2023-04-21T13:56:14.384Z,59.20
2023-04-21T13:58:42.886Z,59.70
2023-04-21T14:01:11.758Z,59.20
2023-04-21T14:03:40.189Z,59.10
2023-04-21T14:06:09.051Z,59.20
2023-04-21T14:08:37.279Z,59.30
2023-04-21T14:11:07.488Z,59.50
2023-04-21T14:13:42.538Z,59.20
2023-04-21T14:16:20.380Z,58.90
2023-04-21T14:18:48.515Z,58.00
2023-04-21T14:21:16.575Z,58.50
2023-04-21T14:23:44.704Z,58.10
2023-04-21T14:26:14.189Z,57.60
2023-04-21T14:28:42.579Z,58.00
2023-04-21T14:31:10.753Z,58.30
2023-04-21T14:33:39.105Z,58.30
2023-04-21T14:36:07.520Z,58.50
2023-04-21T14:38:35.904Z,58.50
2023-04-21T14:41:04.843Z,58.60
2023-04-21T14:43:34.289Z,58.30
2023-04-21T14:46:02.517Z,58.70
2023-04-21T14:48:30.715Z,59.00
2023-04-21T14:50:58.995Z,59.10
2023-04-21T14:53:27.256Z,58.40
2023-04-21T14:55:55.296Z,58.20
2023-04-21T14:58:23.439Z,58.20
2023-04-21T15:00:52.927Z,58.30
2023-04-21T15:03:21.203Z,58.30
2023-04-21T15:05:49.446Z,58.50
2023-04-21T15:08:18.370Z,58.40
2023-04-21T15:10:47.588Z,58.70
2023-04-21T15:13:15.693Z,59.00
2023-04-21T15:15:43.866Z,59.10
2023-04-21T15:18:13.385Z,58.70
2023-04-21T15:20:45.346Z,58.40
2023-04-21T15:23:15.049Z,58.40
2023-04-21T15:25:43.203Z,58.20
2023-04-21T15:28:12.814Z,58.30
2023-04-21T15:30:41.022Z,58.50
2023-04-21T15:33:09.256Z,58.40
2023-04-21T15:35:38.681Z,58.40
2023-04-21T15:38:07.103Z,58.30
2023-04-21T15:40:37.602Z,58.40
2023-04-21T15:43:11.837Z,58.70
2023-04-21T15:45:41.096Z,58.90
2023-04-21T15:48:09.360Z,58.90
2023-04-21T15:50:38.892Z,58.70
2023-04-21T15:53:07.091Z,58.80
2023-04-21T15:55:35.291Z,59.70
2023-04-21T15:58:03.828Z,59.30
2023-04-21T16:00:31.917Z,59.30
2023-04-21T16:03:00.419Z,59.20
2023-04-21T16:05:29.356Z,59.20
2023-04-21T16:07:58.902Z,59.30
2023-04-21T16:10:27.123Z,59.50
2023-04-21T16:12:55.174Z,59.50
2023-04-21T16:15:24.632Z,59.60
2023-04-21T16:17:53.399Z,59.60
2023-04-21T16:20:21.670Z,59.80
2023-04-21T16:22:50.735Z,59.80
2023-04-21T16:25:20.472Z,59.70
2023-04-21T16:27:48.707Z,60.50
2023-04-21T16:30:17.377Z,59.90
2023-04-21T16:32:45.440Z,60.00
2023-04-21T16:35:13.587Z,60.10
2023-04-21T16:37:42.743Z,60.30
2023-04-21T16:40:12.151Z,60.40
2023-04-21T16:42:41.602Z,60.10
2023-04-21T16:45:10.110Z,60.20
2023-04-21T16:47:41.795Z,60.30
2023-04-21T16:50:10.931Z,60.40
2023-04-21T16:52:39.004Z,60.80
2023-04-21T16:55:07.461Z,60.80
2023-04-21T16:57:35.538Z,60.90
2023-04-21T17:00:07.216Z,60.80
2023-04-21T17:02:35.589Z,61.10
2023-04-21T17:05:04.084Z,61.20
2023-04-21T17:07:32.570Z,62.00
2023-04-21T17:10:00.610Z,61.30
2023-04-21T17:12:28.810Z,61.50
2023-04-21T17:14:56.819Z,61.70
2023-04-21T17:17:26.256Z,61.60
2023-04-21T17:19:54.727Z,61.50
2023-04-21T17:22:22.847Z,61.60
2023-04-21T17:24:53.575Z,61.60
2023-04-21T17:27:22.438Z,61.60
2023-04-21T17:29:51.153Z,61.60
2023-04-21T17:32:19.608Z,61.60
2023-04-21T17:34:49.249Z,61.60
2023-04-21T17:37:17.439Z,61.70
2023-04-21T17:39:45.522Z,61.80
2023-04-21T17:42:13.598Z,61.90
2023-04-21T17:44:41.929Z,61.90
2023-04-21T17:47:10.486Z,62.10
2023-04-21T17:49:38.555Z,62.00
2023-04-21T17:52:07.943Z,62.10
2023-04-21T17:54:37.107Z,62.30
2023-04-21T17:57:06.748Z,62.50
2023-04-21T17:59:34.886Z,62.80
2023-04-21T18:02:03.072Z,63.10
2023-04-21T18:04:33.928Z,63.20
2023-04-21T18:07:02.110Z,63.20
2023-04-21T18:09:31.646Z,63.30
2023-04-21T18:11:59.755Z,63.40
2023-04-21T18:14:28.302Z,63.50
2023-04-21T18:16:56.352Z,63.50
2023-04-21T18:19:24.390Z,63.60
2023-04-21T18:21:52.568Z,63.70
2023-04-21T18:24:20.641Z,63.80
2023-04-21T18:26:51.187Z,63.90
2023-04-21T18:29:19.564Z,63.80
2023-04-21T18:31:47.738Z,63.80
2023-04-21T18:34:16.530Z,63.70
2023-04-21T18:36:44.580Z,63.80
2023-04-21T18:39:12.863Z,63.80
2023-04-21T18:41:41.879Z,64.10
2023-04-21T18:44:11.322Z,64.00
2023-04-21T18:46:39.392Z,64.10
2023-04-21T18:49:07.497Z,64.00
2023-04-21T18:51:36.168Z,63.90
2023-04-21T18:54:04.843Z,63.80
2023-04-21T18:56:33.586Z,63.70
2023-04-21T18:59:02.065Z,63.70
2023-04-21T19:01:31.776Z,63.60
2023-04-21T19:04:00.385Z,63.70
2023-04-21T19:06:29.296Z,63.80
2023-04-21T19:08:57.946Z,64.10
2023-04-21T19:11:26.089Z,64.30
2023-04-21T19:13:54.296Z,64.50
2023-04-21T19:16:22.363Z,64.60
2023-04-21T19:18:52.262Z,65.00
2023-04-21T19:21:20.436Z,65.10
2023-04-21T19:23:48.545Z,65.40
2023-04-21T19:26:17.055Z,65.60
2023-04-21T19:28:45.968Z,65.80
2023-04-21T19:31:14.154Z,66.10
2023-04-21T19:33:42.212Z,66.30
2023-04-21T19:36:11.710Z,66.40
2023-04-21T19:38:39.883Z,66.50
2023-04-21T19:41:07.926Z,66.60
2023-04-21T19:43:35.984Z,67.10
2023-04-21T19:46:04.092Z,67.20
2023-04-21T19:48:32.708Z,67.30
2023-04-21T19:51:00.900Z,67.60
2023-04-21T19:53:30.350Z,67.80
2023-04-21T19:55:58.395Z,68.10
2023-04-21T19:58:39.640Z,68.10
2023-04-21T20:01:09.147Z,68.10
2023-04-21T20:03:37.600Z,68.10
2023-04-21T20:06:06.686Z,68.20
2023-04-21T20:08:36.706Z,68.50
2023-04-21T20:11:04.745Z,68.70
2023-04-21T20:13:32.799Z,68.60
2023-04-21T20:16:00.932Z,68.70
2023-04-21T20:18:29.126Z,69.00
2023-04-21T20:20:57.257Z,68.90
2023-04-21T20:23:25.396Z,69.00
2023-04-21T20:25:54.798Z,69.10
2023-04-21T20:28:22.845Z,69.30
2023-04-21T20:30:51.203Z,69.20
2023-04-21T20:33:19.219Z,69.20
2023-04-21T20:35:47.272Z,69.30
2023-04-21T20:38:15.970Z,69.50
2023-04-21T20:40:44.052Z,69.40
2023-04-21T20:43:13.694Z,69.40
2023-04-21T20:45:42.263Z,70.10
2023-04-21T20:48:10.624Z,69.20
2023-04-21T20:50:38.694Z,69.20
2023-04-21T20:53:08.829Z,69.10
2023-04-21T20:55:36.963Z,69.30
2023-04-21T20:58:05.452Z,69.50
2023-04-21T21:00:35.107Z,69.50
2023-04-21T21:03:04.649Z,69.70
2023-04-21T21:05:34.105Z,69.80
2023-04-21T21:08:02.308Z,69.90
2023-04-21T21:10:30.533Z,70.10
2023-04-21T21:12:59.667Z,70.30
2023-04-21T21:15:27.979Z,70.70
2023-04-21T21:17:57.543Z,70.90
2023-04-21T21:20:25.765Z,71.20
2023-04-21T21:22:53.809Z,71.30
2023-04-21T21:25:22.121Z,71.40
2023-04-21T21:27:50.218Z,71.50
2023-04-21T21:30:18.433Z,71.70
2023-04-21T21:32:47.648Z,71.60
2023-04-21T21:35:17.223Z,71.60
2023-04-21T21:37:45.285Z,71.60
2023-04-21T21:40:13.841Z,71.50
2023-04-21T21:42:41.879Z,71.10
2023-04-21T21:45:11.419Z,71.00
2023-04-21T21:47:43.046Z,71.00
2023-04-21T21:50:13.119Z,70.90
2023-04-21T21:52:42.616Z,70.80
2023-04-21T21:55:10.982Z,70.80
2023-04-21T21:57:39.102Z,70.90
2023-04-21T22:00:12.040Z,70.90
2023-04-21T22:02:40.190Z,71.20
2023-04-21T22:05:09.986Z,71.00
2023-04-21T22:07:40.776Z,70.80
2023-04-21T22:10:11.761Z,70.70
2023-04-21T22:12:39.870Z,71.20
2023-04-21T22:15:09.435Z,71.20
2023-04-21T22:17:37.944Z,71.40
2023-04-21T22:20:08.499Z,71.40
2023-04-21T22:22:36.815Z,71.80
2023-04-21T22:25:05.237Z,71.70
2023-04-21T22:27:34.698Z,71.60
2023-04-21T22:30:03.497Z,71.40
2023-04-21T22:32:32.431Z,71.10
2023-04-21T22:35:01.376Z,70.90
2023-04-21T22:37:29.529Z,70.90
2023-04-21T22:39:57.683Z,70.60
2023-04-21T22:42:25.838Z,70.70
2023-04-21T22:44:55.271Z,70.70
2023-04-21T22:47:23.683Z,70.80
2023-04-21T22:49:53.383Z,70.70
2023-04-21T22:52:21.430Z,70.80
2023-04-21T22:54:49.514Z,70.80
2023-04-21T22:57:17.562Z,71.10
2023-04-21T22:59:46.030Z,71.40
2023-04-21T23:02:15.810Z,71.50
2023-04-21T23:04:43.897Z,71.70
2023-04-21T23:07:11.940Z,71.50
2023-04-21T23:09:40.254Z,71.30
2023-04-21T23:12:08.605Z,71.30
2023-04-21T23:14:36.811Z,71.10
2023-04-21T23:17:04.927Z,71.00
2023-04-21T23:19:34.325Z,71.10
2023-04-21T23:22:02.466Z,71.30
2023-04-21T23:24:30.490Z,71.50
2023-04-21T23:26:58.538Z,71.60
2023-04-21T23:29:26.635Z,71.90
2023-04-21T23:31:54.899Z,72.20
2023-04-21T23:34:23.095Z,72.40
2023-04-21T23:36:52.508Z,72.70
2023-04-21T23:39:21.584Z,73.10
2023-04-21T23:41:52.207Z,73.20
2023-04-21T23:44:20.719Z,73.20
2023-04-21T23:46:48.752Z,73.10
2023-04-21T23:49:16.787Z,73.00
2023-04-21T23:51:44.906Z,73.10
2023-04-21T23:54:14.308Z,73.20
2023-04-21T23:56:42.343Z,73.30
2023-04-21T23:59:10.386Z,73.30
